PLF038 EPKK-EPKK
Flight info
| Callsign | PLF038 |
|---|---|
| Flight time | 0h 49m |
| Altitude | 2000 |
| Route | DCT |
| Aircraft | C295/M-SDFGIRY/S |
Departure
| Time | 2026-05-07 18:19 |
|---|---|
| Airport | Kraków John Paul II International Airport (EPKK) |
Arrival
| Time | 2026-05-07 19:09 |
|---|---|
| Airport | Kraków John Paul II International Airport (EPKK) |
| Time | Latitude | Longitude | Altitude | Speed | Heading |
|---|---|---|---|---|---|
| 2026-05-07 17:53 | 50.07575 | 19.79252 | 786 ft | 0 kts | 348° |
| 2026-05-07 18:12 | 50.07576 | 19.79251 | 786 ft | 1 kts | 348° |
| 2026-05-07 18:12 | 50.07606 | 19.79242 | 786 ft | 6 kts | 350° |
| 2026-05-07 18:12 | 50.07629 | 19.79277 | 786 ft | 6 kts | 69° |
| 2026-05-07 18:13 | 50.07641 | 19.79357 | 786 ft | 9 kts | 78° |
| 2026-05-07 18:13 | 50.07655 | 19.79455 | 786 ft | 10 kts | 78° |
| 2026-05-07 18:13 | 50.07670 | 19.79565 | 786 ft | 11 kts | 78° |
| 2026-05-07 18:13 | 50.07686 | 19.79687 | 786 ft | 12 kts | 78° |
| 2026-05-07 18:14 | 50.07705 | 19.79818 | 786 ft | 13 kts | 77° |
| 2026-05-07 18:14 | 50.07724 | 19.79954 | 786 ft | 13 kts | 77° |
| 2026-05-07 18:14 | 50.07744 | 19.80093 | 786 ft | 13 kts | 78° |
| 2026-05-07 18:14 | 50.07762 | 19.80234 | 786 ft | 13 kts | 79° |
| 2026-05-07 18:15 | 50.07808 | 19.80344 | 786 ft | 13 kts | 7° |
| 2026-05-07 18:15 | 50.07843 | 19.80336 | 786 ft | 0 kts | 348° |
| 2026-05-07 18:16 | 50.07844 | 19.80336 | 786 ft | 1 kts | 348° |
| 2026-05-07 18:16 | 50.07878 | 19.80325 | 786 ft | 8 kts | 348° |
| 2026-05-07 18:16 | 50.07945 | 19.80303 | 786 ft | 12 kts | 348° |
| 2026-05-07 18:16 | 50.08016 | 19.80268 | 786 ft | 8 kts | 311° |
| 2026-05-07 18:17 | 50.08017 | 19.80228 | 786 ft | 0 kts | 261° |
| 2026-05-07 18:17 | 50.08017 | 19.80226 | 786 ft | 2 kts | 261° |
| 2026-05-07 18:17 | 50.07982 | 19.79979 | 786 ft | 52 kts | 258° |
| 2026-05-07 18:18 | 50.07866 | 19.79133 | 787 ft | 105 kts | 257° |
| 2026-05-07 18:18 | 50.07685 | 19.77845 | 869 ft | 131 kts | 255° |
| 2026-05-07 18:18 | 50.07226 | 19.76591 | 1050 ft | 149 kts | 203° |
| 2026-05-07 18:18 | 50.06137 | 19.76590 | 1197 ft | 173 kts | 167° |
| 2026-05-07 18:19 | 50.05153 | 19.77724 | 1231 ft | 200 kts | 113° |
| 2026-05-07 18:19 | 50.05131 | 19.80005 | 1217 ft | 220 kts | 77° |
| 2026-05-07 18:19 | 50.05480 | 19.82306 | 1648 ft | 213 kts | 76° |
| 2026-05-07 18:19 | 50.05845 | 19.84491 | 1760 ft | 210 kts | 75° |
| 2026-05-07 18:20 | 50.06194 | 19.86553 | 1713 ft | 185 kts | 76° |
| 2026-05-07 18:20 | 50.06478 | 19.88419 | 1595 ft | 169 kts | 75° |
| 2026-05-07 18:20 | 50.07090 | 19.89951 | 1379 ft | 187 kts | 33° |
| 2026-05-07 18:20 | 50.08462 | 19.90276 | 1173 ft | 219 kts | 341° |
| 2026-05-07 18:21 | 50.09433 | 19.88634 | 1516 ft | 215 kts | 277° |
| 2026-05-07 18:21 | 50.09014 | 19.86642 | 1419 ft | 177 kts | 243° |
| 2026-05-07 18:21 | 50.08644 | 19.85055 | 1453 ft | 145 kts | 258° |
| 2026-05-07 18:21 | 50.08468 | 19.83539 | 1246 ft | 141 kts | 259° |
| 2026-05-07 18:22 | 50.08273 | 19.82070 | 1052 ft | 136 kts | 257° |
| 2026-05-07 18:22 | 50.08137 | 19.81110 | 938 ft | 133 kts | 258° |
| 2026-05-07 18:22 | 50.07883 | 19.79299 | 786 ft | 123 kts | 258° |
| 2026-05-07 18:22 | 50.07694 | 19.77918 | 819 ft | 145 kts | 257° |
| 2026-05-07 18:23 | 50.07461 | 19.76320 | 1199 ft | 157 kts | 256° |
| 2026-05-07 18:23 | 50.07169 | 19.74495 | 1316 ft | 187 kts | 245° |
| 2026-05-07 18:23 | 50.06173 | 19.73112 | 1403 ft | 208 kts | 195° |
| 2026-05-07 18:23 | 50.04720 | 19.73369 | 1403 ft | 221 kts | 152° |
| 2026-05-07 18:24 | 50.03450 | 19.74509 | 1429 ft | 190 kts | 128° |
| 2026-05-07 18:24 | 50.03397 | 19.76398 | 1097 ft | 188 kts | 72° |
| 2026-05-07 18:24 | 50.03859 | 19.78407 | 1156 ft | 206 kts | 71° |
| 2026-05-07 18:24 | 50.04459 | 19.80415 | 1296 ft | 199 kts | 42° |
| 2026-05-07 18:25 | 50.05701 | 19.80304 | 1223 ft | 210 kts | 303° |
| 2026-05-07 18:25 | 50.05763 | 19.78117 | 1191 ft | 203 kts | 256° |
| 2026-05-07 18:25 | 50.05440 | 19.76005 | 1355 ft | 203 kts | 255° |
| 2026-05-07 18:25 | 50.05149 | 19.73883 | 1617 ft | 197 kts | 257° |
| 2026-05-07 18:26 | 50.04573 | 19.71986 | 1610 ft | 202 kts | 216° |
| 2026-05-07 18:26 | 50.03225 | 19.71807 | 1403 ft | 214 kts | 150° |
| 2026-05-07 18:26 | 50.02589 | 19.73782 | 1249 ft | 219 kts | 83° |
| 2026-05-07 18:26 | 50.02963 | 19.75966 | 1422 ft | 201 kts | 75° |
| 2026-05-07 18:27 | 50.03332 | 19.78047 | 1473 ft | 200 kts | 76° |
| 2026-05-07 18:27 | 50.03738 | 19.80133 | 1377 ft | 199 kts | 60° |
| 2026-05-07 18:27 | 50.04955 | 19.80752 | 1221 ft | 209 kts | 333° |
| 2026-05-07 18:27 | 50.05625 | 19.79696 | 1116 ft | 212 kts | 294° |
| 2026-05-07 18:28 | 50.05647 | 19.77503 | 1197 ft | 196 kts | 256° |
| 2026-05-07 18:28 | 50.05384 | 19.75543 | 1620 ft | 177 kts | 256° |
| 2026-05-07 18:28 | 50.05082 | 19.73692 | 1727 ft | 177 kts | 256° |
| 2026-05-07 18:28 | 50.04273 | 19.71744 | 1766 ft | 172 kts | 185° |
| 2026-05-07 18:29 | 50.03502 | 19.72093 | 1690 ft | 179 kts | 140° |
| 2026-05-07 18:29 | 50.03000 | 19.73828 | 1632 ft | 187 kts | 87° |
| 2026-05-07 18:29 | 50.03271 | 19.75772 | 1627 ft | 187 kts | 75° |
| 2026-05-07 18:29 | 50.03633 | 19.77760 | 1605 ft | 191 kts | 75° |
| 2026-05-07 18:30 | 50.04002 | 19.79746 | 1591 ft | 193 kts | 75° |
| 2026-05-07 18:30 | 50.04631 | 19.81471 | 1481 ft | 192 kts | 15° |
| 2026-05-07 18:30 | 50.05692 | 19.80500 | 1183 ft | 204 kts | 280° |
| 2026-05-07 18:30 | 50.05544 | 19.78420 | 1364 ft | 185 kts | 256° |
| 2026-05-07 18:31 | 50.05302 | 19.76514 | 1642 ft | 176 kts | 257° |
| 2026-05-07 18:31 | 50.05061 | 19.74679 | 1799 ft | 173 kts | 259° |
| 2026-05-07 18:31 | 50.04838 | 19.72807 | 1802 ft | 175 kts | 253° |
| 2026-05-07 18:31 | 50.04003 | 19.71536 | 1728 ft | 184 kts | 192° |
| 2026-05-07 18:32 | 50.02767 | 19.72014 | 1610 ft | 192 kts | 138° |
| 2026-05-07 18:32 | 50.02310 | 19.73934 | 1486 ft | 199 kts | 84° |
| 2026-05-07 18:32 | 50.02631 | 19.75936 | 1619 ft | 190 kts | 72° |
| 2026-05-07 18:32 | 50.03128 | 19.77847 | 1620 ft | 191 kts | 69° |
| 2026-05-07 18:33 | 50.03593 | 19.79791 | 1663 ft | 190 kts | 70° |
| 2026-05-07 18:33 | 50.04033 | 19.81702 | 1871 ft | 187 kts | 71° |
| 2026-05-07 18:33 | 50.04433 | 19.83657 | 1956 ft | 192 kts | 73° |
| 2026-05-07 18:33 | 50.05249 | 19.85147 | 1914 ft | 196 kts | 15° |
| 2026-05-07 18:34 | 50.06331 | 19.84203 | 1713 ft | 201 kts | 279° |
| 2026-05-07 18:34 | 50.06096 | 19.82116 | 1597 ft | 194 kts | 257° |
| 2026-05-07 18:34 | 50.05834 | 19.80097 | 1733 ft | 187 kts | 257° |
| 2026-05-07 18:34 | 50.05532 | 19.78149 | 1812 ft | 184 kts | 256° |
| 2026-05-07 18:35 | 50.05245 | 19.76191 | 1789 ft | 187 kts | 258° |
| 2026-05-07 18:35 | 50.04976 | 19.74215 | 1902 ft | 181 kts | 258° |
| 2026-05-07 18:35 | 50.04613 | 19.72360 | 1853 ft | 182 kts | 230° |
| 2026-05-07 18:35 | 50.03433 | 19.71899 | 1666 ft | 193 kts | 156° |
| 2026-05-07 18:36 | 50.02737 | 19.73598 | 1424 ft | 205 kts | 86° |
| 2026-05-07 18:36 | 50.03107 | 19.75643 | 1599 ft | 188 kts | 74° |
| 2026-05-07 18:36 | 50.03431 | 19.77603 | 1672 ft | 186 kts | 78° |
| 2026-05-07 18:36 | 50.03722 | 19.79550 | 1734 ft | 185 kts | 76° |
| 2026-05-07 18:37 | 50.04029 | 19.81486 | 1698 ft | 185 kts | 73° |
| 2026-05-07 18:37 | 50.04976 | 19.82708 | 1477 ft | 195 kts | 6° |
| 2026-05-07 18:37 | 50.06116 | 19.81820 | 1349 ft | 197 kts | 290° |
| 2026-05-07 18:37 | 50.05981 | 19.79791 | 1351 ft | 185 kts | 251° |
| 2026-05-07 18:38 | 50.05689 | 19.77813 | 1423 ft | 183 kts | 257° |
| 2026-05-07 18:38 | 50.05406 | 19.75908 | 1535 ft | 174 kts | 256° |
| 2026-05-07 18:38 | 50.05130 | 19.74163 | 1428 ft | 163 kts | 255° |
| 2026-05-07 18:38 | 50.04795 | 19.72585 | 1432 ft | 147 kts | 233° |
| 2026-05-07 18:39 | 50.03947 | 19.71884 | 1365 ft | 143 kts | 175° |
| 2026-05-07 18:39 | 50.03126 | 19.72682 | 1212 ft | 150 kts | 117° |
| 2026-05-07 18:39 | 50.03069 | 19.74251 | 1231 ft | 141 kts | 77° |
| 2026-05-07 18:39 | 50.03310 | 19.75618 | 1416 ft | 125 kts | 74° |
| 2026-05-07 18:40 | 50.03572 | 19.76888 | 1499 ft | 123 kts | 72° |
| 2026-05-07 18:40 | 50.03825 | 19.78163 | 1579 ft | 124 kts | 74° |
| 2026-05-07 18:40 | 50.04074 | 19.79483 | 1548 ft | 131 kts | 69° |
| 2026-05-07 18:40 | 50.04867 | 19.80075 | 1383 ft | 147 kts | 342° |
| 2026-05-07 18:41 | 50.05444 | 19.78850 | 1331 ft | 144 kts | 272° |
| 2026-05-07 18:41 | 50.05274 | 19.77424 | 1369 ft | 128 kts | 254° |
| 2026-05-07 18:41 | 50.05086 | 19.76101 | 1410 ft | 118 kts | 257° |
| 2026-05-07 18:41 | 50.04901 | 19.74854 | 1438 ft | 121 kts | 254° |
| 2026-05-07 18:42 | 50.04657 | 19.73586 | 1558 ft | 127 kts | 240° |
| 2026-05-07 18:42 | 50.03854 | 19.73209 | 1591 ft | 135 kts | 161° |
| 2026-05-07 18:42 | 50.03219 | 19.74264 | 1524 ft | 152 kts | 97° |
| 2026-05-07 18:42 | 50.03557 | 19.75829 | 1574 ft | 154 kts | 64° |
| 2026-05-07 18:43 | 50.03909 | 19.77396 | 1706 ft | 154 kts | 74° |
| 2026-05-07 18:43 | 50.04205 | 19.78980 | 1731 ft | 147 kts | 74° |
| 2026-05-07 18:43 | 50.04478 | 19.80451 | 1719 ft | 137 kts | 73° |
| 2026-05-07 18:43 | 50.04741 | 19.81806 | 1703 ft | 128 kts | 73° |
| 2026-05-07 18:44 | 50.04971 | 19.83129 | 1631 ft | 125 kts | 75° |
| 2026-05-07 18:44 | 50.05202 | 19.84426 | 1568 ft | 124 kts | 74° |
| 2026-05-07 18:44 | 50.05440 | 19.85698 | 1525 ft | 121 kts | 70° |
| 2026-05-07 18:44 | 50.06041 | 19.86618 | 1352 ft | 128 kts | 23° |
| 2026-05-07 18:45 | 50.06896 | 19.86655 | 1257 ft | 126 kts | 343° |
| 2026-05-07 18:45 | 50.07708 | 19.86263 | 1285 ft | 120 kts | 339° |
| 2026-05-07 18:45 | 50.08332 | 19.85447 | 1255 ft | 118 kts | 297° |
| 2026-05-07 18:45 | 50.08482 | 19.84206 | 1153 ft | 119 kts | 265° |
| 2026-05-07 18:46 | 50.08383 | 19.82934 | 1079 ft | 118 kts | 260° |
| 2026-05-07 18:46 | 50.08223 | 19.81678 | 1006 ft | 118 kts | 257° |
| 2026-05-07 18:46 | 50.08037 | 19.80409 | 876 ft | 123 kts | 257° |
| 2026-05-07 18:46 | 50.07858 | 19.79098 | 787 ft | 123 kts | 259° |
| 2026-05-07 18:47 | 50.07666 | 19.77718 | 888 ft | 138 kts | 257° |
| 2026-05-07 18:47 | 50.07468 | 19.76340 | 1202 ft | 127 kts | 257° |
| 2026-05-07 18:47 | 50.07262 | 19.75017 | 1428 ft | 124 kts | 254° |
| 2026-05-07 18:47 | 50.06822 | 19.73923 | 1563 ft | 127 kts | 206° |
| 2026-05-07 18:48 | 50.05940 | 19.73968 | 1651 ft | 132 kts | 164° |
| 2026-05-07 18:48 | 50.05082 | 19.74509 | 1715 ft | 139 kts | 133° |
| 2026-05-07 18:48 | 50.04605 | 19.75805 | 1775 ft | 139 kts | 116° |
| 2026-05-07 18:48 | 50.04210 | 19.77076 | 1826 ft | 124 kts | 115° |
| 2026-05-07 18:49 | 50.03865 | 19.78297 | 1739 ft | 123 kts | 112° |
| 2026-05-07 18:49 | 50.03790 | 19.79598 | 1580 ft | 123 kts | 80° |
| 2026-05-07 18:49 | 50.03973 | 19.80860 | 1592 ft | 121 kts | 75° |
| 2026-05-07 18:49 | 50.04209 | 19.82140 | 1636 ft | 125 kts | 65° |
| 2026-05-07 18:50 | 50.04948 | 19.82769 | 1510 ft | 137 kts | 351° |
| 2026-05-07 18:50 | 50.05696 | 19.81975 | 1566 ft | 133 kts | 295° |
| 2026-05-07 18:50 | 50.05773 | 19.80631 | 1568 ft | 121 kts | 258° |
| 2026-05-07 18:50 | 50.05611 | 19.79343 | 1525 ft | 122 kts | 257° |
| 2026-05-07 18:51 | 50.05447 | 19.78053 | 1523 ft | 121 kts | 258° |
| 2026-05-07 18:51 | 50.05296 | 19.76790 | 1560 ft | 117 kts | 259° |
| 2026-05-07 18:51 | 50.05145 | 19.75527 | 1549 ft | 120 kts | 258° |
| 2026-05-07 18:51 | 50.04982 | 19.74261 | 1606 ft | 118 kts | 256° |
| 2026-05-07 18:52 | 50.04759 | 19.73032 | 1626 ft | 118 kts | 236° |
| 2026-05-07 18:52 | 50.04033 | 19.72488 | 1575 ft | 124 kts | 180° |
| 2026-05-07 18:52 | 50.03241 | 19.72996 | 1529 ft | 131 kts | 135° |
| 2026-05-07 18:52 | 50.02925 | 19.74299 | 1514 ft | 135 kts | 85° |
| 2026-05-07 18:53 | 50.03170 | 19.75717 | 1489 ft | 136 kts | 74° |
| 2026-05-07 18:53 | 50.03825 | 19.76736 | 1434 ft | 142 kts | 14° |
| 2026-05-07 18:53 | 50.04770 | 19.76380 | 1365 ft | 145 kts | 318° |
| 2026-05-07 18:53 | 50.05143 | 19.75070 | 1476 ft | 133 kts | 261° |
| 2026-05-07 18:54 | 50.04630 | 19.73980 | 1536 ft | 129 kts | 202° |
| 2026-05-07 18:54 | 50.03772 | 19.74053 | 1565 ft | 129 kts | 148° |
| 2026-05-07 18:54 | 50.03309 | 19.75218 | 1543 ft | 134 kts | 94° |
| 2026-05-07 18:54 | 50.03638 | 19.76517 | 1525 ft | 138 kts | 41° |
| 2026-05-07 18:55 | 50.04570 | 19.76871 | 1415 ft | 146 kts | 342° |
| 2026-05-07 18:55 | 50.05226 | 19.75813 | 1274 ft | 139 kts | 283° |
| 2026-05-07 18:55 | 50.05075 | 19.74440 | 1284 ft | 123 kts | 235° |
| 2026-05-07 18:55 | 50.04416 | 19.73714 | 1293 ft | 117 kts | 190° |
| 2026-05-07 18:56 | 50.03644 | 19.73916 | 1307 ft | 113 kts | 149° |
| 2026-05-07 18:56 | 50.03154 | 19.74864 | 1292 ft | 118 kts | 107° |
| 2026-05-07 18:56 | 50.03198 | 19.76107 | 1335 ft | 118 kts | 65° |
| 2026-05-07 18:56 | 50.03723 | 19.77094 | 1363 ft | 118 kts | 41° |
| 2026-05-07 18:57 | 50.04367 | 19.77886 | 1407 ft | 118 kts | 33° |
| 2026-05-07 18:57 | 50.05030 | 19.78660 | 1438 ft | 120 kts | 50° |
| 2026-05-07 18:57 | 50.05444 | 19.79822 | 1446 ft | 125 kts | 68° |
| 2026-05-07 18:57 | 50.05735 | 19.81109 | 1475 ft | 127 kts | 72° |
| 2026-05-07 18:58 | 50.06008 | 19.82425 | 1523 ft | 128 kts | 75° |
| 2026-05-07 18:58 | 50.06154 | 19.83781 | 1590 ft | 125 kts | 98° |
| 2026-05-07 18:58 | 50.05712 | 19.84912 | 1552 ft | 130 kts | 150° |
| 2026-05-07 18:58 | 50.04833 | 19.85058 | 1490 ft | 129 kts | 202° |
| 2026-05-07 18:59 | 50.04256 | 19.84063 | 1416 ft | 126 kts | 253° |
| 2026-05-07 18:59 | 50.04173 | 19.82758 | 1424 ft | 117 kts | 265° |
| 2026-05-07 18:59 | 50.04046 | 19.81548 | 1345 ft | 115 kts | 255° |
| 2026-05-07 18:59 | 50.03907 | 19.80327 | 1344 ft | 116 kts | 258° |
| 2026-05-07 19:00 | 50.03761 | 19.79091 | 1336 ft | 116 kts | 259° |
| 2026-05-07 19:00 | 50.03632 | 19.77858 | 1350 ft | 114 kts | 259° |
| 2026-05-07 19:00 | 50.03492 | 19.76655 | 1348 ft | 112 kts | 258° |
| 2026-05-07 19:00 | 50.03372 | 19.75454 | 1323 ft | 112 kts | 264° |
| 2026-05-07 19:01 | 50.03507 | 19.74270 | 1285 ft | 117 kts | 300° |
| 2026-05-07 19:01 | 50.04163 | 19.73494 | 1231 ft | 126 kts | 346° |
| 2026-05-07 19:01 | 50.05016 | 19.73716 | 1228 ft | 129 kts | 35° |
| 2026-05-07 19:01 | 50.05464 | 19.74887 | 1206 ft | 129 kts | 86° |
| 2026-05-07 19:02 | 50.05549 | 19.76179 | 1334 ft | 113 kts | 83° |
| 2026-05-07 19:02 | 50.05699 | 19.77385 | 1385 ft | 114 kts | 79° |
| 2026-05-07 19:02 | 50.05853 | 19.78585 | 1539 ft | 112 kts | 81° |
| 2026-05-07 19:02 | 50.06010 | 19.79761 | 1700 ft | 113 kts | 77° |
| 2026-05-07 19:03 | 50.06107 | 19.80983 | 1865 ft | 116 kts | 99° |
| 2026-05-07 19:03 | 50.05720 | 19.82156 | 1921 ft | 129 kts | 118° |
| 2026-05-07 19:03 | 50.05663 | 19.83551 | 1977 ft | 139 kts | 72° |
| 2026-05-07 19:03 | 50.05962 | 19.85007 | 2084 ft | 139 kts | 70° |
| 2026-05-07 19:04 | 50.06184 | 19.86402 | 2093 ft | 127 kts | 78° |
| 2026-05-07 19:04 | 50.06334 | 19.87794 | 1940 ft | 129 kts | 80° |
| 2026-05-07 19:04 | 50.06461 | 19.89122 | 1911 ft | 119 kts | 80° |
| 2026-05-07 19:04 | 50.06594 | 19.90366 | 1830 ft | 115 kts | 81° |
| 2026-05-07 19:05 | 50.06711 | 19.91621 | 1846 ft | 116 kts | 81° |
| 2026-05-07 19:05 | 50.07004 | 19.92753 | 1906 ft | 113 kts | 44° |
| 2026-05-07 19:05 | 50.07753 | 19.93117 | 1829 ft | 122 kts | 350° |
| 2026-05-07 19:05 | 50.08537 | 19.92803 | 1866 ft | 112 kts | 332° |
| 2026-05-07 19:06 | 50.09146 | 19.91962 | 1911 ft | 122 kts | 299° |
| 2026-05-07 19:06 | 50.09263 | 19.89331 | 1868 ft | 127 kts | 261° |
| 2026-05-07 19:06 | 50.09110 | 19.88012 | 1730 ft | 118 kts | 259° |
| 2026-05-07 19:07 | 50.08943 | 19.86781 | 1554 ft | 112 kts | 258° |
| 2026-05-07 19:07 | 50.08773 | 19.85642 | 1400 ft | 106 kts | 258° |
| 2026-05-07 19:07 | 50.08626 | 19.84534 | 1219 ft | 109 kts | 259° |
| 2026-05-07 19:07 | 50.08457 | 19.83312 | 1114 ft | 115 kts | 256° |
| 2026-05-07 19:08 | 50.08272 | 19.82113 | 1055 ft | 116 kts | 257° |
| 2026-05-07 19:08 | 50.08103 | 19.80852 | 940 ft | 121 kts | 257° |
| 2026-05-07 19:08 | 50.07929 | 19.79608 | 822 ft | 111 kts | 258° |
| 2026-05-07 19:08 | 50.07796 | 19.78646 | 787 ft | 58 kts | 258° |
| 2026-05-07 19:09 | 50.07733 | 19.78201 | 785 ft | 29 kts | 248° |
| 2026-05-07 19:09 | 50.07591 | 19.78106 | 786 ft | 10 kts | 181° |
| 2026-05-07 19:09 | 50.07589 | 19.78106 | 786 ft | 0 kts | 181° |
| 2026-05-07 19:10 | 50.07549 | 19.78105 | 786 ft | 5 kts | 181° |
| 2026-05-07 19:11 | 50.07516 | 19.78104 | 786 ft | 6 kts | 181° |
| 2026-05-07 19:11 | 50.07505 | 19.78104 | 786 ft | 3 kts | 180° |
| 2026-05-07 19:11 | 50.07480 | 19.78119 | 786 ft | 5 kts | 136° |
| 2026-05-07 19:11 | 50.07478 | 19.78178 | 786 ft | 7 kts | 79° |
| 2026-05-07 19:12 | 50.07489 | 19.78267 | 786 ft | 9 kts | 78° |
| 2026-05-07 19:12 | 50.07504 | 19.78375 | 786 ft | 11 kts | 77° |
| 2026-05-07 19:12 | 50.07521 | 19.78495 | 786 ft | 12 kts | 78° |
| 2026-05-07 19:12 | 50.07538 | 19.78623 | 786 ft | 12 kts | 78° |
| 2026-05-07 19:13 | 50.07557 | 19.78757 | 787 ft | 13 kts | 76° |
| 2026-05-07 19:13 | 50.07576 | 19.78894 | 787 ft | 13 kts | 78° |
| 2026-05-07 19:13 | 50.07595 | 19.79034 | 787 ft | 13 kts | 78° |
| 2026-05-07 19:13 | 50.07599 | 19.79143 | 786 ft | 1 kts | 131° |
| 2026-05-07 19:14 | 50.07587 | 19.79153 | 786 ft | 4 kts | 158° |
| 2026-05-07 19:14 | 50.07554 | 19.79160 | 786 ft | 6 kts | 174° |
| 2026-05-07 19:14 | 50.07539 | 19.79163 | 786 ft | 0 kts | 173° |
| 2026-05-07 19:14 | 50.07525 | 19.79175 | 786 ft | 4 kts | 132° |
| 2026-05-07 19:15 | 50.07525 | 19.79234 | 786 ft | 5 kts | 79° |
| 2026-05-07 19:15 | 50.07563 | 19.79255 | 786 ft | 9 kts | 350° |
| 2026-05-07 19:15 | 50.07573 | 19.79253 | 786 ft | 0 kts | 349° |